createdAt,value
2019-05-13T00:00:31.251Z,10.93
2019-05-13T00:02:43.915Z,10.89
2019-05-13T00:05:03.775Z,10.85
2019-05-13T00:07:18.798Z,10.79
2019-05-13T00:09:34.020Z,10.75
2019-05-13T00:11:57.781Z,10.70
2019-05-13T00:14:07.591Z,10.65
2019-05-13T00:16:13.932Z,10.60
2019-05-13T00:18:23.328Z,10.55
2019-05-13T00:20:33.843Z,10.47
2019-05-13T00:22:38.167Z,10.40
2019-05-13T00:24:44.268Z,10.33
2019-05-13T00:26:48.597Z,10.27
2019-05-13T00:28:53.525Z,10.20
2019-05-13T00:30:57.935Z,10.14
2019-05-13T00:33:03.750Z,10.08
2019-05-13T00:35:10.469Z,10.03
2019-05-13T00:37:14.915Z,9.98
2019-05-13T00:39:27.127Z,9.93
2019-05-13T00:41:33.661Z,9.88
2019-05-13T00:43:40.132Z,9.86
2019-05-13T00:46:16.257Z,9.82
2019-05-13T00:48:23.309Z,9.83
2019-05-13T00:50:26.803Z,9.80
2019-05-13T00:53:04.412Z,9.78
2019-05-13T00:55:17.979Z,9.76
2019-05-13T00:57:25.938Z,9.71
2019-05-13T00:59:40.023Z,9.69
2019-05-13T01:01:50.489Z,9.65
2019-05-13T01:04:03.979Z,9.62
2019-05-13T01:06:17.703Z,9.59
2019-05-13T01:08:23.675Z,9.55
2019-05-13T01:10:27.981Z,9.50
2019-05-13T01:12:34.503Z,9.44
2019-05-13T01:14:39.682Z,9.43
2019-05-13T01:16:45.055Z,9.38
2019-05-13T01:18:49.321Z,9.34
2019-05-13T01:20:53.973Z,9.35
2019-05-13T01:22:58.769Z,9.33
2019-05-13T01:25:04.059Z,9.31
2019-05-13T01:27:10.033Z,9.30
2019-05-13T01:29:14.100Z,9.29
2019-05-13T01:31:18.218Z,9.30
2019-05-13T01:33:23.514Z,9.29
2019-05-13T01:35:34.356Z,9.26
2019-05-13T01:37:43.393Z,9.26
2019-05-13T01:39:46.697Z,9.26
2019-05-13T01:41:54.002Z,9.23
2019-05-13T01:43:56.850Z,9.22
2019-05-13T01:46:01.038Z,9.23
2019-05-13T01:48:07.728Z,9.19
2019-05-13T01:50:14.333Z,9.14
2019-05-13T01:52:18.933Z,9.09
2019-05-13T01:54:34.057Z,9.03
2019-05-13T01:56:39.881Z,8.97
2019-05-13T01:58:54.143Z,8.94
2019-05-13T02:00:58.221Z,8.88
2019-05-13T02:03:04.171Z,8.83
2019-05-13T02:05:10.077Z,8.80
2019-05-13T02:07:17.517Z,8.74
2019-05-13T02:09:28.697Z,8.70
2019-05-13T02:11:37.510Z,8.64
2019-05-13T02:13:45.527Z,8.62
2019-05-13T02:15:59.959Z,8.58
2019-05-13T02:18:10.456Z,8.53
2019-05-13T02:20:19.855Z,8.52
2019-05-13T02:22:33.581Z,8.52
2019-05-13T02:24:39.486Z,8.52
2019-05-13T02:26:43.921Z,8.53
2019-05-13T02:28:48.534Z,8.51
2019-05-13T02:30:56.062Z,8.47
2019-05-13T02:33:02.747Z,8.47
2019-05-13T02:35:13.494Z,8.47
2019-05-13T02:37:22.886Z,8.46
2019-05-13T02:39:32.226Z,8.44
2019-05-13T02:41:38.398Z,8.40
2019-05-13T02:43:45.242Z,8.38
2019-05-13T02:45:53.148Z,8.37
2019-05-13T02:48:03.361Z,8.36
2019-05-13T02:50:13.413Z,8.34
2019-05-13T02:52:22.263Z,8.29
2019-05-13T02:54:27.650Z,8.26
2019-05-13T02:56:32.997Z,8.21
2019-05-13T02:58:38.062Z,8.19
2019-05-13T03:00:44.087Z,8.17
2019-05-13T03:02:52.438Z,8.18
2019-05-13T03:04:55.723Z,8.18
2019-05-13T03:07:02.944Z,8.15
2019-05-13T03:09:14.549Z,8.09
2019-05-13T03:11:19.022Z,8.07
2019-05-13T03:13:24.232Z,8.04
2019-05-13T03:15:42.667Z,8.02
2019-05-13T03:18:13.913Z,8.00
2019-05-13T03:20:17.978Z,7.99
2019-05-13T03:22:28.129Z,7.93
2019-05-13T03:24:52.213Z,7.85
2019-05-13T03:26:44.048Z,7.81
2019-05-13T03:28:48.450Z,7.78
2019-05-13T03:30:56.975Z,7.77
2019-05-13T03:33:09.694Z,7.79
2019-05-13T03:35:08.795Z,7.79
2019-05-13T03:37:15.872Z,7.73
2019-05-13T03:39:22.391Z,7.67
2019-05-13T03:41:33.751Z,7.62
2019-05-13T03:43:42.959Z,7.58
2019-05-13T03:45:55.126Z,7.56
2019-05-13T03:48:05.776Z,7.54
2019-05-13T03:50:18.301Z,7.53
2019-05-13T03:52:22.865Z,7.56
2019-05-13T03:54:27.486Z,7.55
2019-05-13T03:56:32.805Z,7.53
2019-05-13T03:58:37.092Z,7.50
2019-05-13T04:00:42.706Z,7.48
2019-05-13T04:02:46.980Z,7.44
2019-05-13T04:04:58.982Z,7.42
2019-05-13T04:07:08.583Z,7.42
2019-05-13T04:09:25.503Z,7.46
2019-05-13T04:11:23.502Z,7.47
2019-05-13T04:13:33.538Z,7.47
2019-05-13T04:15:44.674Z,7.47
2019-05-13T04:18:02.960Z,7.49
2019-05-13T04:20:12.619Z,7.49
2019-05-13T04:22:23.022Z,7.52
2019-05-13T04:24:34.194Z,7.53
2019-05-13T04:26:39.020Z,7.57
2019-05-13T04:28:43.933Z,7.59
2019-05-13T04:30:48.871Z,7.61
2019-05-13T04:32:53.794Z,7.66
2019-05-13T04:34:58.323Z,7.76
2019-05-13T04:37:02.798Z,7.81
2019-05-13T04:39:14.704Z,7.81
2019-05-13T04:41:18.983Z,7.84
2019-05-13T04:43:31.661Z,7.89
2019-05-13T04:45:37.434Z,7.96
2019-05-13T04:47:48.573Z,8.00
2019-05-13T04:49:53.564Z,8.06
2019-05-13T04:52:03.741Z,8.10
2019-05-13T04:54:12.775Z,8.14
2019-05-13T04:56:22.349Z,8.20
2019-05-13T04:58:32.226Z,8.23
2019-05-13T05:01:13.850Z,8.27
2019-05-13T05:03:40.477Z,8.31
2019-05-13T05:05:53.932Z,8.34
2019-05-13T05:08:38.275Z,8.38
2019-05-13T05:11:47.641Z,8.46
2019-05-13T05:14:11.991Z,8.53
2019-05-13T05:16:44.536Z,8.64
2019-05-13T05:19:31.846Z,8.73
2019-05-13T05:21:42.401Z,8.81
2019-05-13T05:24:35.254Z,8.89
2019-05-13T05:30:37.659Z,9.02
2019-05-13T05:33:36.315Z,9.12
2019-05-13T05:35:56.040Z,9.19
2019-05-13T05:38:45.126Z,9.29
2019-05-13T05:40:54.759Z,9.37
2019-05-13T05:43:02.370Z,9.46
2019-05-13T05:45:07.681Z,9.54
2019-05-13T05:47:14.078Z,9.60
2019-05-13T05:49:21.399Z,9.68
2019-05-13T05:51:28.441Z,9.75
2019-05-13T05:53:34.307Z,9.82
2019-05-13T05:55:41.693Z,9.88
2019-05-13T05:57:47.788Z,9.94
2019-05-13T05:59:53.843Z,10.01
2019-05-13T06:02:02.037Z,10.07
2019-05-13T06:04:08.927Z,10.11
2019-05-13T06:06:14.911Z,10.18
2019-05-13T06:08:22.050Z,10.24
2019-05-13T06:10:25.300Z,10.30
2019-05-13T06:12:36.644Z,10.39
2019-05-13T06:15:33.658Z,10.47
2019-05-13T06:17:51.814Z,10.58
2019-05-13T06:20:03.240Z,10.69
2019-05-13T06:22:06.601Z,10.75
2019-05-13T06:24:16.042Z,10.81
2019-05-13T06:26:27.436Z,10.87
2019-05-13T06:28:37.071Z,10.95
2019-05-13T06:30:44.355Z,10.98
2019-05-13T06:32:54.590Z,11.04
2019-05-13T06:35:06.069Z,11.06
2019-05-13T06:37:13.419Z,11.13
2019-05-13T06:39:18.897Z,11.18
2019-05-13T06:41:23.353Z,11.25
2019-05-13T06:43:31.495Z,11.33
2019-05-13T06:45:37.072Z,11.41
2019-05-13T06:50:47.226Z,11.56
2019-05-13T06:52:51.564Z,11.65
2019-05-13T06:54:57.428Z,11.70
2019-05-13T06:57:14.935Z,11.75
2019-05-13T06:59:22.358Z,11.83
2019-05-13T07:01:28.657Z,11.90
2019-05-13T07:03:36.771Z,11.96
2019-05-13T07:05:45.285Z,12.06
2019-05-13T07:07:51.287Z,12.17
2019-05-13T07:09:55.907Z,12.25
2019-05-13T07:12:03.165Z,12.38
2019-05-13T07:14:08.577Z,12.51
2019-05-13T07:16:14.940Z,12.64
2019-05-13T07:18:21.743Z,12.80
2019-05-13T07:20:25.386Z,12.94
2019-05-13T07:22:32.787Z,13.12
2019-05-13T07:24:37.253Z,13.27
2019-05-13T07:26:46.221Z,13.36
2019-05-13T07:28:52.412Z,13.48
2019-05-13T07:31:02.151Z,13.59
2019-05-13T07:33:06.983Z,13.64
2019-05-13T07:35:15.013Z,13.68
2019-05-13T07:37:21.915Z,13.80
2019-05-13T07:39:29.044Z,13.96
2019-05-13T07:41:39.608Z,14.08
2019-05-13T07:43:46.713Z,14.14
2019-05-13T07:45:53.721Z,14.29
2019-05-13T07:48:19.636Z,14.47
2019-05-13T07:50:21.877Z,14.54
2019-05-13T07:52:36.303Z,14.61
2019-05-13T07:54:42.302Z,14.76
2019-05-13T07:56:52.345Z,14.81
2019-05-13T07:59:03.475Z,14.87
2019-05-13T08:01:32.617Z,14.98
2019-05-13T08:03:34.455Z,15.02
2019-05-13T08:05:46.334Z,15.07
2019-05-13T08:07:53.102Z,15.07
2019-05-13T08:10:15.088Z,15.11
2019-05-13T08:12:32.052Z,15.28
2019-05-13T08:14:43.607Z,15.33
2019-05-13T08:16:52.490Z,15.37
2019-05-13T08:19:46.466Z,15.53
2019-05-13T08:22:32.573Z,15.60
2019-05-13T08:25:31.591Z,15.59
2019-05-13T08:27:42.081Z,15.60
2019-05-13T08:29:52.296Z,15.72
2019-05-13T08:32:03.795Z,15.80
2019-05-13T08:34:17.755Z,15.81
2019-05-13T08:36:29.602Z,15.82
2019-05-13T08:38:43.060Z,15.95
2019-05-13T08:40:51.156Z,16.12
2019-05-13T08:42:57.948Z,16.10
2019-05-13T08:45:11.851Z,16.13
2019-05-13T08:47:22.374Z,16.22
2019-05-13T08:49:32.893Z,16.28
2019-05-13T08:51:35.688Z,16.32
2019-05-13T08:53:42.494Z,16.37
2019-05-13T08:55:51.564Z,16.51
2019-05-13T08:57:55.388Z,16.54
2019-05-13T09:00:04.807Z,16.73
2019-05-13T09:02:11.384Z,16.89
2019-05-13T09:04:18.025Z,17.04
2019-05-13T09:06:22.339Z,17.08
2019-05-13T09:08:28.191Z,17.08
2019-05-13T09:10:41.422Z,17.17
2019-05-13T09:12:53.318Z,17.11
2019-05-13T09:14:57.989Z,17.02
2019-05-13T09:17:02.454Z,17.02
2019-05-13T09:19:07.090Z,17.05
2019-05-13T09:21:13.327Z,16.97
2019-05-13T09:23:18.132Z,16.93
2019-05-13T09:25:23.705Z,16.92
2019-05-13T09:27:33.383Z,16.90
2019-05-13T09:29:42.963Z,16.89
2019-05-13T09:31:48.103Z,16.85
2019-05-13T09:34:12.129Z,16.86
2019-05-13T09:37:17.232Z,16.92
2019-05-13T09:40:23.888Z,16.99
2019-05-13T09:45:33.589Z,17.43
2019-05-13T09:47:42.166Z,17.53
2019-05-13T09:49:57.422Z,17.69
2019-05-13T09:52:15.193Z,17.66
2019-05-13T09:54:27.170Z,17.59
2019-05-13T09:56:33.031Z,17.57
2019-05-13T09:59:02.040Z,17.59
2019-05-13T10:01:22.845Z,17.59
2019-05-13T10:03:32.897Z,17.69
2019-05-13T10:05:44.843Z,17.81
2019-05-13T10:07:49.213Z,17.96
2019-05-13T10:10:27.365Z,18.02
2019-05-13T10:12:34.995Z,18.03
2019-05-13T10:15:03.151Z,17.93
2019-05-13T10:17:22.085Z,18.01
2019-05-13T10:19:42.917Z,18.20
2019-05-13T10:21:47.697Z,18.48
2019-05-13T10:23:58.641Z,18.61
2019-05-13T10:26:16.952Z,18.67
2019-05-13T10:29:11.900Z,18.66
2019-05-13T10:31:22.010Z,18.52
2019-05-13T10:33:51.389Z,18.59
2019-05-13T10:36:07.971Z,18.63
2019-05-13T10:38:22.287Z,18.66
2019-05-13T10:40:32.708Z,18.72
2019-05-13T10:42:43.306Z,18.82
2019-05-13T10:44:52.793Z,19.00
2019-05-13T10:47:02.124Z,19.20
2019-05-13T10:49:06.268Z,19.33
2019-05-13T10:51:16.742Z,19.43
2019-05-13T10:53:25.362Z,19.46
2019-05-13T10:55:33.751Z,19.52
2019-05-13T10:57:37.789Z,19.54
2019-05-13T10:59:44.923Z,19.53
2019-05-13T11:01:49.306Z,19.50
2019-05-13T11:03:53.858Z,19.53
2019-05-13T11:06:02.310Z,19.55
2019-05-13T11:08:12.888Z,19.59
2019-05-13T11:10:22.395Z,19.63
2019-05-13T11:12:28.732Z,19.62
2019-05-13T11:14:33.072Z,19.55
2019-05-13T11:16:42.445Z,19.55
2019-05-13T11:18:45.777Z,19.70
2019-05-13T11:20:51.420Z,20.03
2019-05-13T11:23:11.916Z,20.23
2019-05-13T11:25:22.252Z,20.35
2019-05-13T11:28:07.155Z,20.41
2019-05-13T11:30:17.395Z,20.39
2019-05-13T11:32:22.463Z,20.38
2019-05-13T11:34:28.291Z,20.40
2019-05-13T11:36:33.642Z,20.44
2019-05-13T11:38:43.099Z,20.34
2019-05-13T11:40:52.458Z,20.05
2019-05-13T11:42:55.608Z,19.87
2019-05-13T11:45:07.596Z,19.84
2019-05-13T11:47:13.052Z,19.87
2019-05-13T11:49:17.241Z,19.93
2019-05-13T11:51:24.239Z,19.96
2019-05-13T11:53:34.564Z,20.05
2019-05-13T11:55:44.984Z,20.11
2019-05-13T11:57:53.091Z,20.10
2019-05-13T12:00:02.224Z,20.13
2019-05-13T12:02:06.996Z,20.23
2019-05-13T12:04:11.263Z,20.39
2019-05-13T12:06:15.669Z,20.56
2019-05-13T12:08:22.562Z,20.63
2019-05-13T12:10:25.928Z,20.69
2019-05-13T12:12:34.519Z,20.67
2019-05-13T12:14:56.906Z,20.75
2019-05-13T12:16:47.322Z,20.86
2019-05-13T12:18:52.885Z,20.89
2019-05-13T12:20:58.600Z,21.01
2019-05-13T12:23:03.600Z,21.08
2019-05-13T12:25:07.999Z,21.13
2019-05-13T12:27:13.060Z,21.17
2019-05-13T12:29:28.687Z,21.14
2019-05-13T12:31:36.875Z,21.09
2019-05-13T12:33:44.066Z,21.11
2019-05-13T12:35:52.570Z,21.25
2019-05-13T12:37:57.474Z,21.37
2019-05-13T12:40:34.424Z,21.55
2019-05-13T12:42:44.371Z,21.71
2019-05-13T12:45:14.289Z,21.76
2019-05-13T12:47:18.332Z,21.76
2019-05-13T12:49:32.105Z,21.83
2019-05-13T12:51:32.598Z,22.05
2019-05-13T12:53:43.473Z,22.36
2019-05-13T12:55:52.627Z,22.65
2019-05-13T12:57:53.121Z,22.76
2019-05-13T13:00:02.312Z,22.87
2019-05-13T13:02:06.481Z,22.98
2019-05-13T13:04:12.357Z,23.20
2019-05-13T13:06:30.466Z,23.37
2019-05-13T13:08:39.985Z,23.78
2019-05-13T13:10:34.937Z,24.64
2019-05-13T13:12:41.917Z,25.52
2019-05-13T13:14:45.196Z,26.16
2019-05-13T13:16:53.627Z,26.81
2019-05-13T13:18:55.401Z,27.30
2019-05-13T13:21:07.311Z,27.80
2019-05-13T13:23:07.673Z,28.06
2019-05-13T13:25:14.391Z,28.14
2019-05-13T13:27:37.104Z,28.05
2019-05-13T13:29:25.193Z,27.61
2019-05-13T13:31:33.865Z,26.63
2019-05-13T13:33:38.305Z,25.52
2019-05-13T13:35:45.153Z,24.47
2019-05-13T13:37:52.845Z,23.56
2019-05-13T13:43:15.874Z,22.34
2019-05-13T13:45:22.711Z,21.81
2019-05-13T13:47:26.218Z,21.57
2019-05-13T13:49:34.847Z,21.41
2019-05-13T13:51:36.508Z,21.22
2019-05-13T13:53:44.545Z,21.14
2019-05-13T13:55:46.469Z,21.09
2019-05-13T13:57:51.383Z,21.05
2019-05-13T14:00:20.941Z,20.87
2019-05-13T14:02:05.419Z,20.76
2019-05-13T14:04:09.102Z,20.72
2019-05-13T14:07:03.723Z,20.72
2019-05-13T14:08:21.644Z,20.63
2019-05-13T14:10:25.972Z,20.63
2019-05-13T14:12:32.495Z,20.55
2019-05-13T14:14:36.307Z,20.33
2019-05-13T14:16:46.866Z,20.33
2019-05-13T14:18:52.304Z,20.26
2019-05-13T14:20:58.542Z,20.20
2019-05-13T14:23:03.094Z,20.10
2019-05-13T14:25:11.366Z,19.98
2019-05-13T14:27:15.003Z,19.86
2019-05-13T14:29:37.556Z,19.77
2019-05-13T14:31:32.353Z,19.77
2019-05-13T14:33:36.125Z,19.81
2019-05-13T14:35:41.610Z,19.82
2019-05-13T14:37:45.831Z,19.78
2019-05-13T14:39:49.940Z,19.79
2019-05-13T14:41:54.199Z,19.81
2019-05-13T14:43:58.741Z,19.80
2019-05-13T14:46:05.081Z,19.70
2019-05-13T14:48:09.643Z,19.64
2019-05-13T14:50:14.802Z,19.64
2019-05-13T14:52:22.261Z,19.62
2019-05-13T14:54:26.342Z,19.52
2019-05-13T14:56:32.379Z,19.47
2019-05-13T14:58:41.700Z,19.44
2019-05-13T15:00:46.555Z,19.43
2019-05-13T15:02:51.847Z,19.42
2019-05-13T15:04:57.966Z,19.34
2019-05-13T15:07:03.388Z,19.28
2019-05-13T15:09:08.061Z,19.28
2019-05-13T15:11:15.314Z,19.30
2019-05-13T15:13:19.797Z,19.30
2019-05-13T15:15:24.269Z,19.26
2019-05-13T15:17:28.968Z,19.20
2019-05-13T15:19:33.184Z,19.14
2019-05-13T15:21:38.632Z,19.10
2019-05-13T15:23:43.415Z,19.04
2019-05-13T15:25:51.451Z,19.01
2019-05-13T15:27:55.929Z,18.97
2019-05-13T15:30:17.156Z,18.89
2019-05-13T15:32:08.945Z,18.88
2019-05-13T15:34:13.443Z,18.88
2019-05-13T15:36:22.523Z,18.85
2019-05-13T15:38:28.979Z,18.82
2019-05-13T15:40:36.436Z,18.74
2019-05-13T15:42:40.922Z,18.65
2019-05-13T15:44:46.970Z,18.54
2019-05-13T15:46:52.349Z,18.47
2019-05-13T15:48:56.630Z,18.43
2019-05-13T15:51:02.074Z,18.44
2019-05-13T15:53:06.558Z,18.45
2019-05-13T15:55:14.181Z,18.43
2019-05-13T15:57:18.473Z,18.37
2019-05-13T15:59:22.594Z,18.32
2019-05-13T16:01:26.892Z,18.27
2019-05-13T16:03:31.343Z,18.26
2019-05-13T16:05:35.479Z,18.26
2019-05-13T16:07:41.848Z,18.20
2019-05-13T16:09:47.979Z,18.15
2019-05-13T16:11:52.319Z,18.13
2019-05-13T16:13:56.715Z,18.04
2019-05-13T16:16:01.486Z,17.96
2019-05-13T16:18:06.376Z,17.86
2019-05-13T16:20:16.919Z,17.78
2019-05-13T16:22:23.958Z,17.79
2019-05-13T16:24:35.203Z,17.83
2019-05-13T16:26:39.060Z,17.80
2019-05-13T16:28:43.191Z,17.80
2019-05-13T16:30:52.571Z,17.81
2019-05-13T16:32:56.598Z,17.81
2019-05-13T16:35:02.739Z,17.80
2019-05-13T16:37:07.083Z,17.77
2019-05-13T16:39:12.279Z,17.69
2019-05-13T16:41:23.389Z,17.61
2019-05-13T16:43:27.426Z,17.53
2019-05-13T16:45:31.745Z,17.46
2019-05-13T16:47:36.042Z,17.47
2019-05-13T16:49:41.135Z,17.47
2019-05-13T16:51:45.451Z,17.43
2019-05-13T16:53:52.086Z,17.43
2019-05-13T16:55:55.571Z,17.40
2019-05-13T16:58:03.348Z,17.37
2019-05-13T17:00:09.791Z,17.38
2019-05-13T17:02:16.652Z,17.38
2019-05-13T17:04:21.480Z,17.35
2019-05-13T17:06:25.817Z,17.33
2019-05-13T17:08:31.786Z,17.29
2019-05-13T17:10:35.998Z,17.26
2019-05-13T17:12:40.036Z,17.27
2019-05-13T17:14:44.455Z,17.24
2019-05-13T17:16:51.730Z,17.24
2019-05-13T17:18:56.364Z,17.21
2019-05-13T17:21:01.446Z,17.14
2019-05-13T17:23:05.958Z,17.10
2019-05-13T17:25:12.358Z,17.08
2019-05-13T17:27:15.728Z,17.07
2019-05-13T17:29:21.150Z,17.03
2019-05-13T17:31:25.784Z,16.99
2019-05-13T17:33:31.820Z,16.96
2019-05-13T17:35:35.586Z,16.91
2019-05-13T17:37:42.016Z,16.86
2019-05-13T17:39:45.448Z,16.82
2019-05-13T17:41:53.867Z,16.74
2019-05-13T17:43:58.155Z,16.69
2019-05-13T17:46:04.037Z,16.63
2019-05-13T17:48:23.317Z,16.61
2019-05-13T17:50:16.952Z,16.55
2019-05-13T17:52:22.067Z,16.53
2019-05-13T17:54:26.629Z,16.54
2019-05-13T17:56:32.316Z,16.52
2019-05-13T17:58:36.669Z,16.49
2019-05-13T18:00:48.055Z,16.47
2019-05-13T18:02:52.365Z,16.43
2019-05-13T18:04:56.260Z,16.33
2019-05-13T18:07:01.639Z,16.31
2019-05-13T18:09:07.292Z,16.30
2019-05-13T18:11:15.069Z,16.27
2019-05-13T18:13:21.373Z,16.24
2019-05-13T18:15:24.556Z,16.21
2019-05-13T18:17:30.779Z,16.16
2019-05-13T18:19:34.520Z,16.09
2019-05-13T18:21:38.622Z,16.05
2019-05-13T18:23:42.798Z,16.01
2019-05-13T18:25:46.877Z,16.00
2019-05-13T18:27:52.092Z,15.98
2019-05-13T18:29:56.340Z,15.94
2019-05-13T18:32:02.032Z,15.86
2019-05-13T18:34:06.394Z,15.79
2019-05-13T18:36:11.999Z,15.75
2019-05-13T18:38:16.512Z,15.69
2019-05-13T18:40:21.924Z,15.63
2019-05-13T18:42:31.763Z,15.60
2019-05-13T18:44:36.140Z,15.60
2019-05-13T18:46:41.675Z,15.56
2019-05-13T18:48:58.224Z,15.53
2019-05-13T18:50:52.392Z,15.51
2019-05-13T18:52:56.730Z,15.47
2019-05-13T18:55:02.046Z,15.44
2019-05-13T18:57:06.622Z,15.41
2019-05-13T18:59:12.585Z,15.36
2019-05-13T19:01:16.612Z,15.30
2019-05-13T19:03:21.761Z,15.28
2019-05-13T19:05:28.168Z,15.27
2019-05-13T19:07:32.613Z,15.26
2019-05-13T19:09:39.029Z,15.23
2019-05-13T19:11:46.884Z,15.18
2019-05-13T19:13:52.177Z,15.15
2019-05-13T19:15:56.705Z,15.10
2019-05-13T19:18:01.200Z,15.05
2019-05-13T19:20:11.389Z,15.02
2019-05-13T19:22:14.732Z,14.99
2019-05-13T19:24:18.751Z,14.92
2019-05-13T19:26:22.875Z,14.86
2019-05-13T19:28:27.108Z,14.75
2019-05-13T19:30:36.165Z,14.63
2019-05-13T19:32:41.637Z,14.55
2019-05-13T19:34:46.116Z,14.47
2019-05-13T19:36:51.629Z,14.42
2019-05-13T19:38:55.764Z,14.32
2019-05-13T19:41:01.868Z,14.22
2019-05-13T19:43:05.994Z,14.13
2019-05-13T19:45:10.474Z,14.17
2019-05-13T19:47:14.822Z,14.26
2019-05-13T19:49:29.633Z,14.33
2019-05-13T19:51:28.209Z,14.34
2019-05-13T19:53:32.019Z,14.33
2019-05-13T19:55:37.310Z,14.22
2019-05-13T19:57:43.420Z,14.08
2019-05-13T19:59:47.489Z,13.95
2019-05-13T20:01:51.833Z,13.86
2019-05-13T20:03:56.352Z,13.79
2019-05-13T20:06:02.139Z,13.72
2019-05-13T20:08:06.616Z,13.65
2019-05-13T20:10:11.861Z,13.53
2019-05-13T20:12:17.195Z,13.49
2019-05-13T20:14:22.390Z,13.43
2019-05-13T20:16:26.892Z,13.38
2019-05-13T20:18:31.977Z,13.31
2019-05-13T20:20:36.318Z,13.19
2019-05-13T20:22:42.174Z,13.10
2019-05-13T20:24:46.560Z,13.03
2019-05-13T20:26:52.210Z,13.01
2019-05-13T20:28:59.030Z,12.96
2019-05-13T20:31:02.961Z,12.91
2019-05-13T20:33:07.837Z,12.86
2019-05-13T20:35:22.656Z,12.83
2019-05-13T20:37:26.943Z,12.79
2019-05-13T20:39:37.773Z,12.73
2019-05-13T20:41:41.967Z,12.66
2019-05-13T20:43:46.089Z,12.58
2019-05-13T20:45:51.758Z,12.48
2019-05-13T20:47:56.720Z,12.43
2019-05-13T20:50:06.501Z,12.39
2019-05-13T20:52:14.691Z,12.39
2019-05-13T20:54:17.086Z,12.30
2019-05-13T20:56:21.541Z,12.23
2019-05-13T20:58:26.031Z,12.18
2019-05-13T21:00:31.419Z,12.14
2019-05-13T21:02:35.532Z,12.10
2019-05-13T21:04:39.582Z,12.06
2019-05-13T21:06:43.753Z,12.07
2019-05-13T21:08:47.799Z,12.03
2019-05-13T21:11:02.221Z,11.97
2019-05-13T21:13:07.893Z,11.91
2019-05-13T21:15:13.094Z,11.88
2019-05-13T21:17:17.159Z,11.83
2019-05-13T21:19:22.070Z,11.77
2019-05-13T21:21:27.553Z,11.71
2019-05-13T21:23:31.681Z,11.65
2019-05-13T21:25:35.766Z,11.56
2019-05-13T21:27:41.982Z,11.46
2019-05-13T21:29:46.788Z,11.40
2019-05-13T21:31:52.983Z,11.35
2019-05-13T21:33:57.898Z,11.26
2019-05-13T21:36:02.065Z,11.20
2019-05-13T21:38:06.197Z,11.19
2019-05-13T21:40:11.141Z,11.18
2019-05-13T21:42:15.682Z,11.17
2019-05-13T21:44:19.489Z,11.14
2019-05-13T21:46:24.805Z,11.09
2019-05-13T21:48:29.232Z,11.10
2019-05-13T21:50:37.327Z,11.12
2019-05-13T21:52:41.964Z,11.06
2019-05-13T21:54:46.309Z,11.04
2019-05-13T21:56:51.598Z,10.98
2019-05-13T21:59:01.589Z,10.94
2019-05-13T22:01:08.367Z,10.82
2019-05-13T22:03:12.637Z,10.73
2019-05-13T22:05:17.019Z,10.64
2019-05-13T22:07:22.305Z,10.59
2019-05-13T22:09:31.770Z,10.51
2019-05-13T22:11:36.422Z,10.46
2019-05-13T22:13:41.921Z,10.43
2019-05-13T22:15:48.324Z,10.41
2019-05-13T22:17:52.342Z,10.36
2019-05-13T22:20:01.862Z,10.34
2019-05-13T22:22:05.645Z,10.27
2019-05-13T22:24:11.594Z,10.24
2019-05-13T22:26:16.457Z,10.23
2019-05-13T22:28:22.088Z,10.19
2019-05-13T22:30:28.718Z,10.12
2019-05-13T22:32:32.651Z,10.05
2019-05-13T22:34:36.843Z,10.00
2019-05-13T22:36:40.978Z,9.99
2019-05-13T22:38:44.825Z,9.95
2019-05-13T22:40:49.073Z,9.93
2019-05-13T22:42:56.679Z,9.88
2019-05-13T22:44:58.847Z,9.82
2019-05-13T22:47:03.033Z,9.75
2019-05-13T22:49:07.153Z,9.70
2019-05-13T22:51:11.763Z,9.68
2019-05-13T22:53:15.823Z,9.66
2019-05-13T22:55:21.752Z,9.61
2019-05-13T22:57:25.638Z,9.58
2019-05-13T22:59:32.041Z,9.55
2019-05-13T23:01:35.322Z,9.50
2019-05-13T23:03:41.248Z,9.46
2019-05-13T23:05:45.408Z,9.41
2019-05-13T23:07:51.298Z,9.40
2019-05-13T23:09:55.073Z,9.41
2019-05-13T23:12:01.585Z,9.40
2019-05-13T23:14:09.657Z,9.36
2019-05-13T23:16:11.547Z,9.32
2019-05-13T23:18:16.729Z,9.28
2019-05-13T23:20:21.333Z,9.25
2019-05-13T23:22:27.788Z,9.23
2019-05-13T23:24:31.916Z,9.18
2019-05-13T23:26:36.012Z,9.16
2019-05-13T23:28:42.416Z,9.13
2019-05-13T23:30:46.583Z,9.10
2019-05-13T23:32:51.780Z,9.04
2019-05-13T23:34:56.129Z,8.99
2019-05-13T23:37:00.292Z,8.98
2019-05-13T23:39:06.047Z,8.96
2019-05-13T23:41:11.469Z,8.90
2019-05-13T23:43:15.682Z,8.82
2019-05-13T23:45:21.811Z,8.76
2019-05-13T23:47:26.055Z,8.68
2019-05-13T23:49:31.702Z,8.64
2019-05-13T23:51:35.810Z,8.58
2019-05-13T23:53:41.656Z,8.52
2019-05-13T23:55:45.827Z,8.49
2019-05-13T23:57:52.397Z,8.43
2019-05-13T23:59:55.961Z,8.41
